In Rescue
 
Open Full Screen Window  High Contrast Mode
Wind Gusting 00 knots
04
June 22, 2024 8:34 PM EDT
Weather Information
Wind Direction
  230 °
Wind Speed
  04 kt (5 mph)
Wind Gust
  00 kt (0 mph)
Altimeter
29.91 in
Visibility
10 SM
Temperature
30° C
86° F
Dewpoint
17° C
63° F
Humidity
46%
Sky Condition
Clear
VFR

METAR KDLZ 230034Z AUTO 23004KT 10SM CLR 30/17 A2991 RMK AO2

FAA Disclaimer: The data displayed is for advisory purposes only and is not to be used for flight planning or operations.